aviador You're here:

KGSH Decoded Metar

GOSHEN in IN, USA
Report Time2018-07-20 08:53:00
UTC Time2018-07-20 09:05:56
Flight Rules vfr VFR
Wind150° at 09 kt
W.Decomp.*RWY 09: 3.9 kt HW 8.1 kt RCW
RWY 23: 2.2 kt HW 8.7 kt LCW
W.Rank150° ranks 20
Current wind is above 150° avg. (7.2)
Visibility9999 m
Phenomena:N/A
Clouds:Broken 060 Hf
Expected CloudBase > 2,800 ft AGL from Temp-Dew spread
Ceiling6,000 ft
Temp22°C (ISA +9)
Dew Point15°C (65% RH)
AAT20.4°C
QNH1010 hPa
Density Alt2,165 ft
Elevation827 ft
Report Wrong Elevation
Raw Report
KGSH 200853Z AUTO 15009KT 10SM BKN060 22/15 A2982 RMK AO2 SLP090
T02170150 58017 $=

Extra information for KGSH:More info

Metar Taf Metar & Taf Last 4 Metars F.Rules Stats Wind Profile Meteogram Temp Stats Airport Information Weather charts Add Link Nearby VenuesMetar ALERT Operation Metar Decoded Social comments

AIRNAV info for KGSH